Helena, Illinois
Current Conditions -  °F | °C
As of 5:53 PM on Wednesday 22 Oct 2014 (Local Time) from KLWV Reporting Station
Clear Clear  
Wind Chill: 14°   Ceiling: Unl
Heat Index: 14°   Visibility: 10mi
Dew Point:   Wind: 6mph
Humidity: 55%   Direction: 60°ENE
Pressure: 30.24"   Gusts: NA
Location:  38.793°N, 87.8326°W
Report Text: KLWV 222253Z AUTO 06005KT 10SM CLR 14/05 A3024 RMK AO2 SLP242 T01390050
Loading
Personal Weather Stations






























Interactive Weather Map
Tropical Storm Tracking
New forecast layout! Learn more

10-Day Weather Forecast

Advertisements
Track Severe Weather on mobile